Time;durP1;ratioP1;P1;durP2;ratioP2;P2;SDS_P1;SDS_P2;PMS_P1;PMS_P2;Temp;Humidity;BMP_temperature;BMP_pressure;BME280_temperature;BME280_humidity;BME280_pressure;Samples;Min_cycle;Max_cycle;Signal;HPM_P1;HPM_P2
2022/09/23 00:00:43;;;;;;;13.73;6.15;;;;;;;28.31;74.33;98002.59;5007238;28;20072;-71
2022/09/23 00:03:20;;;;;;;8.02;5.88;;;;;;;28.41;74.03;98002.09;5000875;28;20065;-71
2022/09/23 00:06:14;;;;;;;9.95;6.00;;;;;;;28.42;74.32;98005.69;5007497;28;20057;-71
2022/09/23 00:08:57;;;;;;;8.68;5.72;;;;;;;28.36;74.06;98010.66;4989698;28;20116;-72
2022/09/23 00:11:52;;;;;;;13.38;6.35;;;;;;;28.37;74.18;98003.16;5007377;28;20069;-71
2022/09/23 00:14:28;;;;;;;12.05;5.88;;;;;;;28.41;74.04;98006.81;5007579;28;20779;-71
2022/09/23 00:17:23;;;;;;;16.08;6.78;;;;;;;28.49;73.52;98008.66;5007055;28;20062;-71
2022/09/23 00:19:59;;;;;;;10.75;6.95;;;;;;;28.49;73.59;98006.69;5007095;28;20496;-71
2022/09/23 00:22:48;;;;;;;13.05;7.18;;;;;;;28.45;72.83;98011.31;4987485;28;20050;-70
2022/09/23 00:25:38;;;;;;;13.60;7.40;;;;;;;28.53;72.88;98009.59;5006546;28;20050;-71
2022/09/23 00:28:19;;;;;;;16.05;7.70;;;;;;;28.57;72.92;98007.72;5006373;28;20374;-70
2022/09/23 00:31:21;;;;;;;16.80;8.50;;;;;;;28.54;73.38;98005.66;5007573;28;20065;-70
2022/09/23 00:34:10;;;;;;;17.73;9.85;;;;;;;28.40;73.24;98006.03;4986793;28;20644;-71
2022/09/23 00:37:00;;;;;;;28.80;10.00;;;;;;;28.53;73.53;98011.53;4972603;28;20422;-72
2022/09/23 00:39:48;;;;;;;20.85;10.02;;;;;;;28.59;73.65;98013.72;4987031;28;20074;-71
2022/09/23 00:42:37;;;;;;;20.63;10.35;;;;;;;28.53;73.41;98020.63;5002181;28;20108;-71
2022/09/23 00:45:27;;;;;;;15.88;10.60;;;;;;;28.46;74.19;98020.38;5006613;28;20115;-71
2022/09/23 00:48:10;;;;;;;25.67;11.52;;;;;;;28.55;74.01;98018.31;5006493;28;20421;-71
2022/09/23 00:51:00;;;;;;;19.10;10.85;;;;;;;28.52;74.60;98023.75;5006594;28;20164;-71
2022/09/23 00:53:53;;;;;;;18.55;11.70;;;;;;;28.48;74.46;98031.88;4991284;28;20050;-70
2022/09/23 00:56:37;;;;;;;24.10;13.43;;;;;;;28.55;74.56;98040.41;5006240;28;20049;-71
2022/09/23 00:59:28;;;;;;;19.38;11.60;;;;;;;28.52;74.27;98035.56;4981027;28;20516;-71
2022/09/23 01:02:13;;;;;;;19.50;11.57;;;;;;;28.53;74.36;98036.38;5006157;28;20093;-71
2022/09/23 01:05:01;;;;;;;23.38;12.05;;;;;;;28.47;74.25;98041.28;5006199;28;20100;-71
2022/09/23 01:07:45;;;;;;;19.20;11.93;;;;;;;28.47;75.24;98047.66;4988584;28;20682;-71
2022/09/23 01:10:42;;;;;;;21.00;11.45;;;;;;;28.36;74.72;98059.53;5017117;28;20484;-71
2022/09/23 01:13:57;;;;;;;21.02;10.80;;;;;;;28.44;75.25;98061.34;5025658;28;20140;-72
2022/09/23 01:16:57;;;;;;;23.50;11.70;;;;;;;28.53;75.24;98063.97;4999182;28;20052;-71
2022/09/23 01:20:01;;;;;;;22.15;12.30;;;;;;;28.59;74.25;98063.41;5025199;28;20041;-71
2022/09/23 01:23:13;;;;;;;18.92;11.50;;;;;;;28.53;73.63;98067.56;5003368;28;20634;-70
2022/09/23 01:26:07;;;;;;;18.55;11.60;;;;;;;28.57;73.76;98059.38;4981260;28;20393;-71
2022/09/23 01:29:17;;;;;;;15.38;10.10;;;;;;;28.48;74.76;98062.25;5005873;28;20746;-71
2022/09/23 01:32:33;;;;;;;25.52;11.15;;;;;;;28.61;74.08;98066.59;5023961;28;20099;-71
2022/09/23 01:35:42;;;;;;;22.52;11.27;;;;;;;28.66;74.84;98073.84;5015310;28;20060;-71
2022/09/23 01:38:33;;;;;;;27.85;15.40;;;;;;;28.62;73.67;98068.19;5005483;28;20054;-71
2022/09/23 01:41:33;;;;;;;40.22;19.05;;;;;;;28.59;73.77;98073.66;4978484;28;20059;-71
2022/09/23 01:44:13;;;;;;;36.00;19.98;;;;;;;28.77;74.38;98085.19;4968582;28;20120;-71
2022/09/23 01:47:24;;;;;;;43.25;21.98;;;;;;;28.76;73.22;98072.53;4986495;28;20053;-71
2022/09/23 01:53:55;;;;;;;33.33;18.63;;;;;;;28.71;72.97;98081.88;4996629;28;20157;-70
2022/09/23 01:57:04;;;;;;;25.60;13.90;;;;;;;28.60;73.55;98091.81;5005924;28;20476;-71
2022/09/23 02:00:03;;;;;;;17.70;11.15;;;;;;;28.77;73.27;98087.97;4983219;28;20433;-73
2022/09/23 02:02:58;;;;;;;23.88;11.07;;;;;;;28.86;72.95;98097.72;4987198;28;20503;-71
2022/09/23 02:05:47;;;;;;;18.92;10.98;;;;;;;28.97;72.68;98095.25;5003812;28;20141;-72
2022/09/23 02:08:46;;;;;;;19.17;10.48;;;;;;;29.12;72.21;98102.00;5005495;28;20053;-71
2022/09/23 02:11:35;;;;;;;23.00;12.55;;;;;;;29.11;71.43;98097.63;5005717;28;20041;-71
2022/09/23 02:14:36;;;;;;;23.33;11.50;;;;;;;28.94;71.79;98095.97;4990914;28;20115;-71
2022/09/23 02:17:46;;;;;;;24.25;12.30;;;;;;;29.04;71.36;98100.16;4998111;28;20485;-72
2022/09/23 02:20:39;;;;;;;26.08;12.65;;;;;;;28.88;71.58;98108.41;4990113;28;20041;-73
2022/09/23 02:23:43;;;;;;;27.88;13.48;;;;;;;28.88;72.24;98113.94;5003777;28;20108;-71
2022/09/23 02:26:53;;;;;;;25.38;11.43;;;;;;;28.87;72.93;98123.38;5005223;28;20064;-72
2022/09/23 02:29:55;;;;;;;18.33;11.30;;;;;;;29.12;71.71;98121.34;4984065;28;20050;-72
2022/09/23 02:33:14;;;;;;;18.15;10.35;;;;;;;28.77;72.23;98129.38;4989543;28;20581;-72
2022/09/23 02:36:06;;;;;;;24.48;12.60;;;;;;;28.96;71.93;98126.78;4985865;28;20541;-72
2022/09/23 02:39:03;;;;;;;21.48;12.00;;;;;;;28.62;72.46;98131.69;4989310;28;20050;-72
2022/09/23 02:42:04;;;;;;;19.48;12.65;;;;;;;28.97;71.65;98127.59;4989180;28;20050;-69
2022/09/23 02:44:47;;;;;;;32.97;15.60;;;;;;;29.27;70.78;98130.84;4991419;28;20050;-72
2022/09/23 02:47:40;;;;;;;29.70;15.93;;;;;;;29.05;71.90;98132.97;4988822;28;20113;-71
2022/09/23 02:50:22;;;;;;;23.20;15.88;;;;;;;28.94;71.53;98131.88;4988810;28;20050;-72
2022/09/23 02:53:12;;;;;;;26.20;14.77;;;;;;;29.24;70.28;98134.31;4987883;28;20530;-71
2022/09/23 02:55:53;;;;;;;28.27;13.77;;;;;;;29.28;70.48;98140.75;4989269;28;20064;-72
2022/09/23 02:58:42;;;;;;;24.45;12.88;;;;;;;29.31;71.55;98142.78;4987996;28;20046;-72
2022/09/23 03:01:51;;;;;;;25.00;12.05;;;;;;;29.35;71.56;98143.72;4971191;28;20051;-72
2022/09/23 03:04:41;;;;;;;25.02;15.85;;;;;;;29.52;70.82;98141.78;4966792;28;20047;-72
2022/09/23 03:07:23;;;;;;;19.50;12.98;;;;;;;29.39;70.94;98138.31;4984866;28;20465;-71
2022/09/23 03:10:21;;;;;;;22.77;13.40;;;;;;;29.47;70.95;98146.41;4988581;28;20084;-72
2022/09/23 03:13:28;;;;;;;21.05;13.18;;;;;;;29.53;70.92;98146.16;4988909;28;20050;-72
2022/09/23 03:16:50;;;;;;;23.70;12.48;;;;;;;29.70;70.24;98151.38;4988034;28;20617;-72
2022/09/23 03:19:52;;;;;;;30.67;13.20;;;;;;;29.72;70.36;98151.81;4986770;28;20085;-72
2022/09/23 03:22:55;;;;;;;19.33;11.70;;;;;;;29.92;70.49;98140.88;4949525;28;20130;-72
2022/09/23 03:25:41;;;;;;;17.63;11.02;;;;;;;30.08;69.84;98150.00;4982793;28;20050;-72
2022/09/23 03:28:32;;;;;;;28.60;11.23;;;;;;;30.20;68.71;98146.31;4987545;28;20790;-72
2022/09/23 03:31:16;;;;;;;19.27;11.82;;;;;;;30.50;68.56;98143.13;4998005;28;20147;-72
2022/09/23 03:34:08;;;;;;;19.30;12.00;;;;;;;30.35;68.13;98150.28;5003389;28;20112;-71
2022/09/23 03:37:06;;;;;;;16.33;11.48;;;;;;;30.36;68.16;98143.56;5007921;28;20488;-73
2022/09/23 03:40:23;;;;;;;17.95;10.80;;;;;;;30.45;69.42;98147.75;5007446;28;20053;-72
2022/09/23 03:43:13;;;;;;;19.45;11.30;;;;;;;30.77;67.15;98155.19;4989642;28;20097;-73
2022/09/23 03:46:00;;;;;;;26.73;12.52;;;;;;;30.56;68.30;98158.28;5007519;28;20468;-73
2022/09/23 03:48:48;;;;;;;20.35;13.32;;;;;;;30.61;68.27;98146.91;5008351;28;20096;-73
2022/09/23 03:51:31;;;;;;;16.50;12.63;;;;;;;30.45;69.16;98149.72;5027017;28;20041;-73
2022/09/23 03:54:28;;;;;;;19.20;12.43;;;;;;;30.43;69.18;98160.34;5020361;28;20100;-73
2022/09/23 03:57:20;;;;;;;21.48;12.18;;;;;;;30.51;69.43;98156.56;5021615;28;20049;-73
2022/09/23 04:00:06;;;;;;;16.05;12.60;;;;;;;30.89;67.98;98160.59;5007637;28;20074;-73
2022/09/23 04:02:56;;;;;;;21.88;13.10;;;;;;;30.61;68.56;98163.50;5007216;28;20066;-73
2022/09/23 04:05:56;;;;;;;21.08;13.63;;;;;;;30.54;70.30;98169.72;5007216;28;20050;-73
2022/09/23 04:08:32;;;;;;;18.35;12.70;;;;;;;30.83;68.77;98170.34;4990637;28;20049;-73
2022/09/23 04:11:26;;;;;;;20.98;11.98;;;;;;;30.95;67.81;98173.00;4991844;28;20112;-73
2022/09/23 04:14:03;;;;;;;17.08;12.43;;;;;;;31.03;67.19;98169.25;5005911;28;20065;-72
2022/09/23 04:16:57;;;;;;;22.13;13.18;;;;;;;30.74;67.68;98173.31;5007362;28;20481;-73
2022/09/23 04:19:33;;;;;;;17.70;12.85;;;;;;;30.66;69.30;98185.41;4989762;28;20046;-73
2022/09/23 04:22:22;;;;;;;16.90;12.02;;;;;;;30.99;68.91;98185.00;5006435;28;20077;-73
2022/09/23 04:25:04;;;;;;;27.15;13.20;;;;;;;30.73;69.07;98188.34;5006837;28;20049;-74
2022/09/23 04:27:53;;;;;;;20.30;13.13;;;;;;;30.95;68.56;98191.63;5006318;28;20108;-72
2022/09/23 04:30:35;;;;;;;19.45;12.82;;;;;;;30.95;69.89;98181.31;5007706;28;20061;-72
2022/09/23 04:33:25;;;;;;;24.73;12.60;;;;;;;31.12;69.84;98185.66;5006688;28;20132;-72
2022/09/23 04:36:06;;;;;;;18.38;12.27;;;;;;;31.41;68.75;98184.28;5007016;28;20049;-73
2022/09/23 04:38:56;;;;;;;24.30;11.48;;;;;;;31.78;65.81;98174.69;5006708;28;20496;-72
2022/09/23 04:41:37;;;;;;;15.73;11.45;;;;;;;32.17;65.37;98178.16;5006587;28;20066;-72
2022/09/23 04:44:27;;;;;;;20.90;12.07;;;;;;;31.74;65.71;98174.63;5006268;28;20104;-73
2022/09/23 04:47:08;;;;;;;18.02;11.82;;;;;;;32.76;64.10;98173.16;5006215;28;20081;-71
2022/09/23 04:49:58;;;;;;;17.92;12.45;;;;;;;32.66;65.71;98173.03;5006610;28;20196;-72
2022/09/23 04:52:46;;;;;;;17.83;11.77;;;;;;;32.88;63.77;98174.91;5001454;28;20042;-72
2022/09/23 04:55:35;;;;;;;22.90;11.73;;;;;;;33.08;61.83;98177.56;5016761;28;20063;-72
2022/09/23 04:58:17;;;;;;;20.27;11.82;;;;;;;33.15;62.54;98172.94;5004802;28;20052;-72
2022/09/23 05:01:16;;;;;;;24.15;11.73;;;;;;;33.27;62.75;98177.44;4999079;28;20137;-72
2022/09/23 05:04:01;;;;;;;27.83;12.70;;;;;;;33.78;62.54;98180.78;5006016;28;20144;-71
2022/09/23 05:06:49;;;;;;;20.70;12.13;;;;;;;33.76;60.87;98177.59;5005715;28;20552;-72
2022/09/23 05:09:31;;;;;;;22.23;12.23;;;;;;;33.92;61.69;98180.94;4989909;28;20104;-74
2022/09/23 05:12:20;;;;;;;41.17;14.90;;;;;;;33.78;59.94;98181.59;5005577;28;20136;-75
2022/09/23 05:15:14;;;;;;;21.38;11.65;;;;;;;34.20;58.27;98185.19;5005233;28;20385;-75
2022/09/23 05:18:03;;;;;;;23.23;11.68;;;;;;;34.28;58.35;98184.06;4990793;28;20557;-75
2022/09/23 05:20:45;;;;;;;19.83;11.55;;;;;;;34.25;58.16;98174.50;5005799;28;20540;-74
2022/09/23 05:23:35;;;;;;;22.90;10.98;;;;;;;33.89;58.20;98176.13;4996275;28;20481;-75
2022/09/23 05:26:19;;;;;;;17.73;10.15;;;;;;;34.53;58.93;98181.50;4986742;28;20551;-76
2022/09/23 05:29:08;;;;;;;17.90;10.00;;;;;;;34.46;56.54;98176.66;4996707;28;20413;-72
2022/09/23 05:32:03;;;;;;;21.80;10.25;;;;;;;33.53;59.96;98178.53;4977779;28;20061;-75
2022/09/23 05:34:54;;;;;;;17.48;9.68;;;;;;;33.46;60.30;98186.78;4988042;28;20045;-74
2022/09/23 05:37:36;;;;;;;23.25;8.68;;;;;;;33.33;61.21;98181.47;5005951;28;20050;-74
2022/09/23 05:40:24;;;;;;;16.55;8.70;;;;;;;32.63;62.31;98182.88;5003177;28;20108;-75
2022/09/23 05:43:07;;;;;;;17.70;9.07;;;;;;;32.83;61.24;98188.31;5002171;28;20069;-75
2022/09/23 05:46:02;;;;;;;17.48;8.73;;;;;;;32.56;63.14;98183.59;5004566;28;20275;-74
2022/09/23 05:48:49;;;;;;;10.20;7.97;;;;;;;33.00;62.14;98185.00;5005483;28;20081;-73
2022/09/23 05:51:47;;;;;;;16.77;8.55;;;;;;;32.69;61.82;98183.38;4991640;28;20065;-73
2022/09/23 05:54:29;;;;;;;22.70;8.43;;;;;;;32.58;61.82;98175.69;5005167;28;20056;-72
2022/09/23 05:57:19;;;;;;;17.60;9.25;;;;;;;32.49;61.95;98180.66;4999833;28;20077;-69
2022/09/23 06:00:01;;;;;;;23.73;9.38;;;;;;;32.40;61.90;98185.69;4986566;28;20060;-70
2022/09/23 06:02:50;;;;;;;16.23;8.95;;;;;;;32.36;62.83;98182.84;4985064;28;20101;-69
2022/09/23 06:05:32;;;;;;;16.08;10.13;;;;;;;32.31;63.69;98182.34;4987777;28;20046;-71
2022/09/23 06:08:22;;;;;;;17.10;9.13;;;;;;;32.30;64.06;98183.53;4973470;28;20510;-70
2022/09/23 06:11:09;;;;;;;15.93;8.40;;;;;;;32.20;63.94;98184.97;4990170;28;20462;-70
2022/09/23 06:13:59;;;;;;;16.88;8.90;;;;;;;32.28;64.89;98183.91;4989174;28;20056;-70
2022/09/23 06:16:43;;;;;;;16.10;8.57;;;;;;;31.82;65.05;98183.09;4973817;28;20065;-70
2022/09/23 06:19:31;;;;;;;16.48;8.93;;;;;;;32.07;66.06;98192.69;4975717;28;20069;-70
2022/09/23 06:22:15;;;;;;;14.52;7.80;;;;;;;32.32;65.31;98181.19;4989503;28;20065;-71
2022/09/23 06:25:11;;;;;;;10.73;7.45;;;;;;;32.23;65.78;98183.41;4989262;28;20079;-71
2022/09/23 06:27:54;;;;;;;18.13;8.65;;;;;;;32.02;65.90;98181.88;4990225;28;20089;-71
2022/09/23 06:30:49;;;;;;;10.57;7.82;;;;;;;32.29;64.93;98179.97;4989789;28;20477;-70
2022/09/23 06:33:38;;;;;;;12.85;7.68;;;;;;;31.89;65.39;98172.09;5003944;28;20499;-70
2022/09/23 06:36:27;;;;;;;19.23;8.85;;;;;;;31.66;67.49;98172.09;5008833;28;20057;-69
2022/09/23 06:39:24;;;;;;;11.13;8.15;;;;;;;31.69;66.37;98174.91;5008954;28;20532;-70
2022/09/23 06:42:14;;;;;;;16.25;8.07;;;;;;;31.38;67.91;98168.38;5008536;28;20525;-70
2022/09/23 06:44:58;;;;;;;13.93;7.90;;;;;;;31.28;67.46;98170.91;5001618;28;20134;-72
2022/09/23 06:47:54;;;;;;;18.58;7.78;;;;;;;31.00;69.25;98164.41;4989587;28;20051;-69
2022/09/23 06:50:50;;;;;;;13.18;7.93;;;;;;;30.96;70.33;98168.28;4974262;28;20046;-70
2022/09/23 06:53:26;;;;;;;17.42;8.77;;;;;;;31.30;71.34;98169.41;4988289;28;20058;-70
2022/09/23 06:56:23;;;;;;;12.45;8.07;;;;;;;31.49;70.20;98157.53;4975785;28;20065;-71
2022/09/23 06:58:59;;;;;;;16.98;8.80;;;;;;;31.48;70.54;98153.13;4988357;28;20057;-69
2022/09/23 07:01:54;;;;;;;15.75;8.15;;;;;;;31.69;70.95;98143.63;4989229;28;20058;-70
2022/09/23 07:04:30;;;;;;;10.30;8.23;;;;;;;31.85;69.42;98144.28;4971304;28;20046;-70
2022/09/23 07:07:25;;;;;;;16.02;7.97;;;;;;;31.61;68.99;98139.91;4988560;28;20763;-70
2022/09/23 07:10:03;;;;;;;12.45;7.95;;;;;;;31.66;69.44;98142.34;4969538;28;20539;-71
2022/09/23 07:12:58;;;;;;;10.55;7.93;;;;;;;31.23;69.41;98130.44;4975562;28;20054;-69
2022/09/23 07:15:34;;;;;;;14.60;8.68;;;;;;;31.24;70.50;98132.03;4980262;28;20657;-72
2022/09/23 07:18:32;;;;;;;14.38;9.32;;;;;;;30.79;70.58;98144.53;4979921;28;20775;-70
2022/09/23 07:21:13;;;;;;;16.02;10.75;;;;;;;30.82;70.98;98136.31;4987810;28;20050;-70
2022/09/23 07:24:10;;;;;;;17.38;9.85;;;;;;;30.67;71.00;98128.03;4988171;28;20064;-70
2022/09/23 07:26:45;;;;;;;13.52;9.23;;;;;;;30.76;72.19;98137.75;4998241;28;20054;-70
2022/09/23 07:29:33;;;;;;;17.02;8.75;;;;;;;30.66;70.78;98115.38;4997798;28;20137;-70
2022/09/23 07:32:29;;;;;;;11.35;8.35;;;;;;;30.61;71.35;98108.94;5009378;28;20046;-70
2022/09/23 07:35:35;;;;;;;17.65;8.93;;;;;;;30.97;72.97;98106.94;4985431;28;20492;-69
2022/09/23 07:38:11;;;;;;;14.80;8.13;;;;;;;30.89;73.06;98102.41;4991799;28;20076;-70
2022/09/23 07:41:09;;;;;;;11.70;7.65;;;;;;;31.16;72.07;98095.06;5007146;28;20045;-69
2022/09/23 07:43:46;;;;;;;12.45;7.90;;;;;;;31.06;71.69;98089.31;5019565;28;20060;-69
2022/09/23 07:46:35;;;;;;;11.93;8.57;;;;;;;31.13;72.44;98084.72;5017966;28;20199;-70
2022/09/23 07:49:24;;;;;;;12.13;8.40;;;;;;;30.80;71.03;98068.56;5018638;28;20101;-71
2022/09/23 07:52:13;;;;;;;10.65;8.30;;;;;;;31.76;70.64;98066.84;5021356;28;20064;-70
2022/09/23 07:55:02;;;;;;;11.93;7.70;;;;;;;32.11;69.75;98062.28;5024766;28;20041;-70
2022/09/23 07:57:45;;;;;;;14.48;8.50;;;;;;;31.57;70.47;98064.94;5019418;28;20056;-70
2022/09/23 08:00:35;;;;;;;12.05;8.25;;;;;;;31.58;69.39;98063.75;5023241;28;20481;-70
2022/09/23 08:03:16;;;;;;;;;;;;;;;31.86;68.78;98056.31;5020531;28;20057;-70
2022/09/23 08:06:11;;;;;;;10.95;8.20;;;;;;;31.64;68.90;98044.84;5024330;28;20394;-70
2022/09/23 08:08:55;;;;;;;14.45;7.68;;;;;;;31.95;68.55;98041.00;5023170;28;20495;-69
2022/09/23 08:11:45;;;;;;;11.35;7.65;;;;;;;31.89;70.07;98048.06;5024372;28;20060;-71
2022/09/23 08:14:27;;;;;;;;;;;;;;;31.95;69.80;98040.22;5019874;28;20968;-70
2022/09/23 08:17:17;;;;;;;13.60;8.57;;;;;;;31.90;69.05;98040.50;5012019;28;20311;-70
2022/09/23 08:19:59;;;;;;;18.33;10.05;;;;;;;31.51;69.94;98032.34;5006567;28;20049;-69
2022/09/23 08:22:49;;;;;;;12.60;8.63;;;;;;;31.47;68.79;98040.63;5006169;28;20148;-70
2022/09/23 08:25:32;;;;;;;13.57;8.63;;;;;;;31.50;68.65;98041.84;4993707;28;20061;-70
2022/09/23 08:28:24;;;;;;;12.63;9.05;;;;;;;31.20;69.97;98050.78;4985897;28;20053;-69
2022/09/23 08:31:12;;;;;;;10.50;8.45;;;;;;;30.91;69.80;98043.88;4987310;28;20046;-70
2022/09/23 08:34:02;;;;;;;13.23;8.07;;;;;;;31.02;68.44;98051.25;4952713;28;20059;-69
2022/09/23 08:36:44;;;;;;;15.70;9.05;;;;;;;30.78;69.51;98059.81;4967740;28;20061;-69
2022/09/23 08:39:33;;;;;;;10.75;6.40;;;;;;;28.93;71.29;98096.31;4967426;28;20058;-69
2022/09/23 08:42:26;;;;;;;12.82;5.05;;;;;;;27.87;73.59;98091.44;4967299;28;20076;-69
2022/09/23 08:45:31;;;;;;;9.80;4.10;;;;;;;26.59;78.86;98112.44;4967197;28;20565;-69
2022/09/23 08:48:19;;;;;;;5.90;4.22;;;;;;;26.46;79.86;98095.03;4967774;28;20058;-69
2022/09/23 08:51:28;;;;;;;6.60;3.80;;;;;;;26.63;79.33;98107.91;4966362;28;20054;-68
2022/09/23 08:54:03;;;;;;;5.85;4.70;;;;;;;26.62;79.52;98090.59;4966902;28;20054;-68
2022/09/23 08:57:03;;;;;;;5.72;4.20;;;;;;;25.93;80.16;98086.28;4983692;28;20050;-68
2022/09/23 08:59:43;;;;;;;8.10;5.13;;;;;;;26.01;80.62;98070.88;4982252;28;20069;-68
2022/09/23 09:02:40;;;;;;;5.60;4.60;;;;;;;26.37;79.85;98076.66;4984859;28;20490;-68
2022/09/23 09:05:26;;;;;;;8.15;4.97;;;;;;;26.40;79.99;98074.38;4986355;28;20050;-67
2022/09/23 09:08:30;;;;;;;9.00;4.82;;;;;;;26.30;78.56;98062.59;4983684;28;20056;-68
2022/09/23 09:11:11;;;;;;;9.70;5.63;;;;;;;26.38;79.51;98064.47;4986009;28;20083;-67
2022/09/23 09:14:26;;;;;;;9.68;5.32;;;;;;;26.28;79.43;98037.38;4985562;28;20493;-67
2022/09/23 09:17:12;;;;;;;13.45;7.25;;;;;;;26.52;82.68;98020.22;4984656;28;20068;-68
2022/09/23 09:20:22;;;;;;;13.73;7.22;;;;;;;25.97;83.92;97996.50;4968574;28;20445;-68
2022/09/23 09:23:24;;;;;;;10.95;6.65;;;;;;;26.22;80.65;97978.22;4984084;28;20046;-67
2022/09/23 09:26:29;;;;;;;11.60;6.97;;;;;;;26.46;80.68;97972.00;4977994;28;20050;-67
2022/09/23 09:29:09;;;;;;;11.20;6.90;;;;;;;26.43;83.21;97947.16;4984958;28;20090;-68
2022/09/23 09:32:37;;;;;;;;;;;;;;;26.44;82.20;97955.03;4995303;28;20058;-68
2022/09/23 09:35:41;;;;;;;15.98;8.50;;;;;;;26.78;82.08;97931.09;4999781;28;19929;-68
2022/09/23 09:38:30;;;;;;;14.55;8.88;;;;;;;27.06;81.06;97936.78;5005593;28;20049;-67
2022/09/23 09:41:20;;;;;;;14.90;9.55;;;;;;;27.14;80.54;97946.09;5010073;28;20429;-67
2022/09/23 09:44:27;;;;;;;13.80;8.98;;;;;;;27.08;80.67;97936.47;5009402;28;20060;-67
2022/09/23 09:47:15;;;;;;;15.35;9.50;;;;;;;27.34;81.07;97933.38;5010261;28;20522;-67
2022/09/23 09:50:22;;;;;;;14.55;9.90;;;;;;;27.42;80.71;97940.75;5013335;28;20077;-67
2022/09/23 09:53:22;;;;;;;16.55;10.65;;;;;;;27.24;81.75;97929.13;4993020;28;20511;-68
2022/09/23 09:56:17;;;;;;;13.48;10.52;;;;;;;27.52;80.69;97929.28;5009678;28;20053;-68
2022/09/23 09:59:07;;;;;;;16.17;10.15;;;;;;;27.57;80.30;97921.91;5010189;28;20132;-68
2022/09/23 10:02:39;;;;;;;15.82;10.05;;;;;;;27.51;79.75;97918.59;4992182;28;20421;-68
2022/09/23 10:05:33;;;;;;;14.88;10.27;;;;;;;27.71;80.79;97930.63;4989895;28;20140;-68
2022/09/23 10:08:27;;;;;;;17.92;10.30;;;;;;;27.87;80.07;97939.00;4989976;28;20082;-67
2022/09/23 10:11:15;;;;;;;15.00;10.30;;;;;;;28.13;79.51;97930.34;4989331;28;20058;-68
2022/09/23 10:14:12;;;;;;;20.25;10.85;;;;;;;28.37;79.65;97917.63;4974849;28;20064;-68
2022/09/23 10:17:04;;;;;;;13.70;10.27;;;;;;;28.14;77.14;97920.91;4993219;28;20053;-68
2022/09/23 10:19:59;;;;;;;15.93;11.32;;;;;;;28.30;80.35;97929.28;5009621;28;20469;-69
2022/09/23 10:22:48;;;;;;;18.02;12.15;;;;;;;28.17;79.66;97947.00;5008657;28;20050;-68
2022/09/23 10:25:40;;;;;;;17.98;10.85;;;;;;;28.38;79.13;97941.31;5001618;28;20049;-68
2022/09/23 10:28:52;;;;;;;17.70;11.18;;;;;;;28.36;79.21;97952.69;5008965;28;20049;-68
2022/09/23 10:31:43;;;;;;;15.20;11.68;;;;;;;28.31;79.80;97962.00;5008413;28;20342;-69
2022/09/23 10:34:40;;;;;;;18.95;12.32;;;;;;;27.80;79.74;97975.44;5008453;28;20140;-69
2022/09/23 10:37:30;;;;;;;18.30;12.48;;;;;;;28.06;79.37;97968.75;5008298;28;20060;-69
2022/09/23 10:47:13;;;;;;;21.07;11.53;;;;;;;27.61;78.66;97964.16;5008789;28;20061;-68
2022/09/23 10:49:55;;;;;;;19.17;12.30;;;;;;;27.55;79.32;97971.88;5006602;28;20785;-66
2022/09/23 10:53:14;;;;;;;17.33;12.13;;;;;;;27.71;79.27;97966.47;5006642;28;20089;-68
2022/09/23 10:56:15;;;;;;;18.40;12.15;;;;;;;27.98;80.31;97983.47;5006355;28;20057;-68
2022/09/23 10:59:29;;;;;;;19.73;12.48;;;;;;;28.03;80.06;97985.97;4989169;28;20755;-69
2022/09/23 11:02:13;;;;;;;19.88;12.77;;;;;;;28.09;80.05;97979.09;4999196;28;20112;-68
2022/09/23 11:05:25;;;;;;;25.58;17.40;;;;;;;28.01;79.48;97971.75;5028238;28;20491;-69
2022/09/23 11:08:03;;;;;;;37.22;25.08;;;;;;;27.94;79.16;97974.31;4997464;28;20037;-68
2022/09/23 11:11:21;;;;;;;53.92;33.85;;;;;;;27.73;78.97;97983.47;4988989;28;20109;-70
2022/09/23 11:14:28;;;;;;;47.60;32.08;;;;;;;27.79;78.52;97975.78;4987876;28;20490;-68
2022/09/23 11:17:43;;;;;;;40.90;27.55;;;;;;;27.65;77.58;97962.31;4994374;28;20148;-68
2022/09/23 11:20:31;;;;;;;28.50;20.70;;;;;;;27.38;78.46;97942.59;5007934;28;20058;-68
2022/09/23 11:23:47;;;;;;;27.25;17.45;;;;;;;27.53;77.47;97941.09;4997538;28;20046;-68
2022/09/23 11:26:40;;;;;;;27.48;17.38;;;;;;;27.61;78.19;97942.13;5003049;28;20050;-68
2022/09/23 11:30:08;;;;;;;30.88;18.55;;;;;;;27.75;78.79;97947.28;5004751;28;20330;-68
2022/09/23 11:33:13;;;;;;;25.42;16.42;;;;;;;27.68;79.02;97947.88;5004641;28;20077;-67
2022/09/23 11:36:07;;;;;;;26.15;15.93;;;;;;;27.59;78.13;97939.72;5005936;28;20049;-68
2022/09/23 11:39:06;;;;;;;18.67;12.80;;;;;;;27.53;78.50;97930.88;5006289;28;20128;-67
2022/09/23 11:41:43;;;;;;;18.50;13.25;;;;;;;27.68;79.96;97932.13;5004712;28;20754;-67
2022/09/23 11:44:48;;;;;;;20.58;14.05;;;;;;;27.89;78.48;97934.75;5004677;28;20046;-68
2022/09/23 11:47:47;;;;;;;22.38;15.00;;;;;;;27.88;79.04;97932.34;5008815;28;20053;-67
2022/09/23 11:50:46;;;;;;;23.98;14.57;;;;;;;27.84;78.63;97935.00;5007200;28;20713;-68
2022/09/23 11:53:55;;;;;;;26.42;14.73;;;;;;;27.80;77.69;97934.06;5005005;28;20473;-68
2022/09/23 11:56:44;;;;;;;21.65;15.13;;;;;;;27.87;78.67;97917.72;5003959;28;20058;-68
2022/09/23 11:59:51;;;;;;;25.60;16.35;;;;;;;28.01;78.29;97933.13;4996356;28;20152;-67
2022/09/23 12:03:14;;;;;;;17.95;12.55;;;;;;;27.88;75.81;97924.91;5006975;28;20730;-67
2022/09/23 12:06:49;;;;;;;19.92;11.35;;;;;;;28.46;76.57;97923.78;5005458;28;20050;-68
2022/09/23 12:09:59;;;;;;;16.65;11.85;;;;;;;28.36;78.24;97921.53;5000926;28;20046;-68
2022/09/23 12:13:01;;;;;;;17.02;11.57;;;;;;;28.37;77.96;97926.69;5006281;28;20125;-66
2022/09/23 12:15:46;;;;;;;18.77;12.48;;;;;;;28.23;78.00;97918.81;4989664;28;20053;-69
2022/09/23 12:19:10;;;;;;;16.92;11.65;;;;;;;28.15;77.31;97914.25;5007154;28;20076;-68
2022/09/23 12:22:13;;;;;;;21.05;10.65;;;;;;;28.25;78.03;97922.03;5006617;28;20038;-67
2022/09/23 12:25:20;;;;;;;15.50;10.27;;;;;;;28.20;77.21;97925.03;5006739;28;20050;-66
2022/09/23 12:28:36;;;;;;;18.05;10.50;;;;;;;28.18;76.92;97926.53;5003909;28;20054;-69
2022/09/23 12:31:17;;;;;;;21.40;11.05;;;;;;;28.23;78.66;97935.38;5003309;28;20146;-68
2022/09/23 12:34:52;;;;;;;21.27;12.75;;;;;;;28.27;78.80;97930.75;5003690;28;20117;-67
2022/09/23 12:37:42;;;;;;;18.73;13.38;;;;;;;28.33;78.15;97938.78;4909450;29;20043;-67
2022/09/23 12:40:43;;;;;;;26.00;14.90;;;;;;;28.22;79.30;97936.53;5004600;28;20105;-69
2022/09/23 12:43:35;;;;;;;19.83;14.98;;;;;;;28.13;77.87;97935.88;5002259;28;20060;-69
2022/09/23 12:46:27;;;;;;;22.98;14.30;;;;;;;28.11;78.84;97935.41;4992325;28;20513;-68
2022/09/23 12:49:27;;;;;;;23.30;15.00;;;;;;;28.18;78.65;97938.38;5015571;28;20060;-67
2022/09/23 12:52:37;;;;;;;25.58;15.75;;;;;;;28.19;78.26;97934.47;5024283;28;20057;-66
2022/09/23 12:55:20;;;;;;;24.77;16.63;;;;;;;28.16;78.35;97929.63;4988911;28;20622;-67
2022/09/23 12:58:45;;;;;;;37.97;21.27;;;;;;;27.76;79.44;97943.38;4979102;28;20042;-68
2022/09/23 13:01:27;;;;;;;36.63;22.20;;;;;;;27.70;79.43;97940.03;5005710;28;20135;-67
2022/09/23 13:07:44;;;;;;;45.30;25.10;;;;;;;28.10;79.22;97937.34;4991829;28;20133;-67
2022/09/23 13:10:39;;;;;;;38.60;25.67;;;;;;;28.19;78.63;97945.50;5000927;28;20434;-68
2022/09/23 13:13:33;;;;;;;42.90;28.77;;;;;;;28.16;78.25;97939.88;5004608;28;20053;-66
2022/09/23 13:16:37;;;;;;;42.45;28.25;;;;;;;28.15;79.17;97950.13;5004209;28;20053;-67
2022/09/23 13:19:25;;;;;;;50.30;30.63;;;;;;;28.03;79.23;97941.84;4989439;28;20050;-67
2022/09/23 13:22:12;;;;;;;47.50;31.30;;;;;;;28.12;80.24;97939.75;5005306;28;20078;-67
2022/09/23 13:25:22;;;;;;;55.07;34.73;;;;;;;28.06;80.35;97943.94;5005463;28;20041;-67
2022/09/23 13:28:01;;;;;;;53.13;35.53;;;;;;;27.99;80.62;97947.25;5005351;28;20540;-70
2022/09/23 13:30:51;;;;;;;55.13;36.92;;;;;;;27.85;80.89;97939.34;4998705;28;20099;-68
2022/09/23 13:33:59;;;;;;;52.85;38.10;;;;;;;28.14;80.40;97948.50;5003035;28;20505;-69
2022/09/23 13:36:48;;;;;;;50.60;36.05;;;;;;;28.18;80.02;97946.63;5003791;28;20049;-68